Skip to main content
Hanford.Gov
Hanford Meteorological Station

Hanford Meteorological Station

Current and Past 96 Hour Observations
Date Time (PST) Ceiling (ft) Visibility (miles) Liquid Precip* Frozen Precip* Obstruction* Sea-Level Pressure (mbs) Dew Point Temp. (°F) Wind Direction (degrees) Wind Direction (from) Wind Speed (mph) Mixing Height (m) Station Pressure (inches Hg) Ambient Temp. (°F) Wet Bulb Temp. (°F) Rel. Hum. (%) Sky Cover (tenths) Rain (inches) Snow (melted inches) Snow (unmelted inches) Solar Radiation (Langleys / min.) WBGT** (°F)
08/10/2022 1100 UNL 15 1012.2 56 310° NW 4 800 29.13 91 68 30 4 0.00 0.00 0.0 1.00 87.4
08/10/2022 1000 UNL 15 1012.5 56 180° S 3 1100 29.14 88 68 33 2 0.00 0.00 0.0 0.93 85.3
08/10/2022 0900 UNL 15 1012.3 55 280° W 2 700 29.13 84 66 37 2 0.00 0.00 0.0 0.73 84.4
08/10/2022 0800 UNL 15 1012.4 57 330° NNW 3 400 29.13 80 65 43 2 0.00 0.00 0.0 0.50 81
08/10/2022 0700 UNL 15 1012.2 60 310° NW 5 200 29.12 77 66 55 2 0.00 0.00 0.0 0.25 74.8
08/10/2022 0600 UNL 15 1011.9 61 310° NW 5 200 29.12 73 65 65 4 0.00 0.00 0.0 0.03 68.7
08/10/2022 0500 NA 15 1011.8 62 320° NW 1 NA 29.11 73 66 67 NA 0.00 0.00 0.0 0.00 0
08/10/2022 0400 NA 15 1011.1 62 20° NNE 4 NA 29.10 72 65 69 NA 0.00 0.00 0.0 0.00 0
08/10/2022 0300 NA 15 1011.1 61 360° N 5 NA 29.10 75 66 62 NA 0.00 0.00 0.0 0.00 0
08/10/2022 0200 NA 15 1011.0 60 130° SE 4 NA 29.09 76 66 57 NA 0.00 0.00 0.0 0.00 0
08/10/2022 0100 14000 15 1010.8 59 150° SSE 11 400 29.09 79 66 52 9 0.00 0.00 0.0 0.00 0
08/09/2022 2400 14000 15 1010.1 60 40° NE 5 200 29.07 78 67 55 10 0.00 0.00 0.0 0.00 0
08/09/2022 2300 14000 15 1010.3 59 340° NNW 10 500 29.07 81 67 47 10 0.00 0.00 0.0 0.00 0
08/09/2022 2200 14000 15 1011.2 53 220° SW 16 1500 29.10 87 66 31 10 0.00 0.00 0.0 0.00 0
08/09/2022 2100 14000 15 1010.9 54 220° SW 14 1500 29.09 87 67 32 10 0.00 0.00 0.0 0.00 0
08/09/2022 2000 14000 15 1010.8 56 160° SSE 12 1300 29.09 87 67 35 10 0.00 0.00 0.0 0.00 0
08/09/2022 1900 14000 15 1010.3 50 150° SSE 5 1300 29.07 92 67 24 10 0.00 0.00 0.0 0.09 75.7
08/09/2022 1800 14000 15 1009.8 44 320° NW 5 1400 29.06 94 65 18 10 0.00 0.00 0.0 0.11 76.1
08/09/2022 1700 14000 15 1010.2 43 250° WSW 4 1400 29.07 95 65 17 10 0.00 0.00 0.0 0.13 76.1
08/09/2022 1600 14000 15 1010.1 45 350° N 13 1400 29.07 95 66 18 9 0.00 0.00 0.0 0.21 76.8
08/09/2022 1500 14000 15 1009.9 42 340° NNW 7 1500 29.06 96 64 15 10 0.00 0.00 0.0 0.40 78.6
08/09/2022 1400 UNL 15 1009.8 42 340° NNW 8 1500 29.06 97 64 14 9 0.00 0.00 0.0 1.02 85.6
08/09/2022 1300 UNL 15 1010.3 41 360° N 8 1000 29.07 94 63 16 5 0.00 0.00 0.0 1.16 83.8
08/09/2022 1200 20000 15 1010.6 44 20° NNE 9 1000 29.08 92 63 18 6 0.00 0.00 0.0 0.81 82.6
08/09/2022 1100 15000 15 1011.3 44 50° NE 5 1300 29.10 89 62 20 9 0.00 0.00 0.0 0.37 76.5
08/09/2022 1000 15000 15 1011.5 46 40° NE 8 900 29.11 88 63 23 10 0.00 0.00 0.0 0.35 73.9
08/09/2022 0900 15000 15 1011.0 46 320° NW 10 900 29.09 86 62 24 10 0.00 0.00 0.0 0.27 71.6
08/09/2022 0800 15000 15 1010.3 44 300° WNW 13 800 29.07 86 62 22 10 0.00 0.00 0.0 0.25 72
08/09/2022 0700 14000 15 1009.0 48 320° NW 13 200 29.04 81 61 31 10 0.00 0.00 0.0 0.11 69.1
08/09/2022 0600 14000 15 1009.2 46 320° NW 11 200 29.04 82 61 28 10 0.00 0.00 0.0 0.02 69.1
08/09/2022 0500 NA 15 1008.9 46 300° WNW 12 NA 29.04 83 61 27 NA 0.00 0.00 0.0 0.00 0
08/09/2022 0400 NA 15 1008.7 46 300° WNW 11 NA 29.03 82 61 28 NA 0.00 0.00 0.0 0.00 0
08/09/2022 0300 NA 15 1008.5 46 290° WNW 9 NA 29.02 81 61 29 NA 0.00 0.00 0.0 0.00 0
08/09/2022 0200 NA 15 1008.6 45 300° WNW 7 NA 29.02 79 60 29 NA 0.00 0.00 0.0 0.00 0
08/09/2022 0100 UNL 15 1009.0 45 320° NW 8 100 29.04 82 61 27 5 0.00 0.00 0.0 0.00 0
08/08/2022 2400 UNL 15 1009.0 45 290° WNW 8 140 29.04 84 62 26 3 0.00 0.00 0.0 0.00 0
08/08/2022 2300 UNL 15 1008.9 41 310° NW 9 140 29.03 82 60 23 4 0.00 0.00 0.0 0.00 0
08/08/2022 2200 UNL 15 1009.1 39 350° N 6 100 29.04 85 60 20 1 0.00 0.00 0.0 0.00 0
08/08/2022 2100 UNL 15 1009.0 38 200° SSW 5 1500 29.03 87 60 17 0 0.00 0.00 0.0 0.40 0
08/08/2022 2000 UNL 15 1008.1 41 110° ESE 6 600 29.01 90 62 18 2 0.00 0.00 0.0 0.01 72.7
08/08/2022 1900 UNL 15 1008.0 35 130° SE 4 1400 29.01 99 0 63 11 0.00 0.00 0.0 0.12 78.1
08/08/2022 1800 UNL 15 1008.2 36 90° E 11 1500 29.01 103 65 10 0 0.00 0.00 0.0 0.32 81.9
08/08/2022 1700 UNL 15 1009.0 38 110° ESE 7 1200 29.03 103 66 11 3 0.00 0.00 0.0 0.50 84.2
08/08/2022 1600 UNL 15 1009.3 37 120° ESE 8 1200 29.04 104 66 10 1 0.00 0.00 0.0 0.78 85.5
08/08/2022 1500 UNL 15 1009.7 36 140° SE 7 1100 29.05 104 65 9 0 0.00 0.00 0.0 0.98 86.5
08/08/2022 1400 UNL 15 1010.4 36 90° E 6 1000 29.07 101 64 10 0 0.00 0.00 0.0 1.12 86.7
08/08/2022 1300 UNL 15 1011.0 34 140° SE 5 800 29.09 99 63 10 0 0.00 0.00 0.0 1.19 87.1
08/08/2022 1200 UNL 15 1011.9 36 110° ESE 4 600 29.12 95 62 12 0 0.00 0.00 0.0 1.19 85.1
08/08/2022 1100 UNL 15 1012.5 38 60° ENE 4 400 29.13 91 62 15 0 0.00 0.00 0.0 1.11 84
08/08/2022 1000 UNL 15 1013.1 40 60° ENE 3 350 29.15 86 60 20 0 0.00 0.00 0.0 0.98 80.1
08/08/2022 0900 UNL 15 1013.7 40 100° E 3 250 29.17 81 58 23 0 0.00 0.00 0.0 0.78 77
08/08/2022 0800 UNL 15 1013.8 40 80° E 3 1500 29.17 75 56 28 0 0.00 0.00 0.0 0.56 0
08/08/2022 0700 UNL 15 1013.7 45 110° ESE 3 140 29.17 70 56 40 0 0.00 0.00 0.0 0.32 65.7
08/08/2022 0600 UNL 15 1013.7 40 150° SSE 6 140 29.16 64 52 40 0 0.00 0.00 0.0 0.10 59.8
08/08/2022 0500 NA 15 1013.4 38 170° S 1 NA 29.16 64 51 38 NA 0.00 0.00 0.0 0.00 0
08/08/2022 0400 NA 15 1013.0 30 350° N 4 NA 29.15 62 48 29 NA 0.00 0.00 0.0 0.00 0
08/08/2022 0300 NA 15 1012.8 31 200° SSW 8 NA 29.14 64 49 28 NA 0.00 0.00 0.0 0.00 0
08/08/2022 0200 NA 15 1012.6 32 350° N 2 NA 29.14 69 51 24 NA 0.00 0.00 0.0 0.00 0
08/08/2022 0100 NA 15 1012.6 37 260° W 4 NA 29.14 72 52 22 NA 0.00 0.00 0.0 0.00 0
08/07/2022 2400 NA 15 1012.6 31 250° WSW 9 NA 29.14 72 52 21 NA 0.00 0.00 0.0 0.00 0
08/07/2022 2300 NA 15 1012.8 32 260° W 7 NA 29.14 73 53 21 NA 0.00 0.00 0.0 0.00 0
08/07/2022 2200 NA 15 1012.8 32 260° W 5 NA 29.14 77 54 18 NA 0.00 0.00 0.0 0.00 0
08/07/2022 2100 NA 15 1012.8 28 260° W 6 NA 29.14 80 55 14 NA 0.00 0.00 0.0 0.00 0
08/07/2022 2000 NA 15 1012.7 25 00° %wdir% 0 NA 29.14 86 56 10 NA 0.00 0.00 0.0 0.01 0
08/07/2022 1900 NA 15 1012.7 25 80° E 3 NA 29.14 92 59 8 NA 0.00 0.00 0.0 0.13 0
08/07/2022 1800 NA 15 1012.8 27 140° SE 2 NA 29.14 96 60 8 NA 0.00 0.00 0.0 0.34 0
08/07/2022 1700 NA 15 1013.3 30 50° NE 6 NA 29.15 96 61 9 NA 0.00 0.00 0.0 0.58 0
08/07/2022 1600 NA 15 1013.9 30 130° SE 4 NA 29.17 96 61 9 NA 0.00 0.00 0.0 0.81 0
08/07/2022 1500 UNL 15 1014.7 31 40° NE 5 1400 29.20 97 62 10 0 0.00 0.00 0.0 1.00 83.7
08/07/2022 1400 UNL 15 1015.4 32 80° E 6 1300 29.22 95 61 10 0 0.00 0.00 0.0 1.14 83.5
08/07/2022 1300 UNL 15 1016.0 35 120° ESE 7 1300 29.24 94 62 12 0 0.00 0.00 0.0 1.21 83.7
08/07/2022 1200 UNL 15 1016.7 37 90° E 6 1100 29.25 91 61 14 0 0.00 0.00 0.0 1.21 81.9
08/07/2022 1100 UNL 15 1017.3 38 60° ENE 4 1000 29.27 87 60 17 0 0.00 0.00 0.0 1.13 79.2
08/07/2022 1000 UNL 15 1017.6 39 30° NNE 4 400 29.28 83 59 20 0 0.00 0.00 0.0 0.99 79.7
08/07/2022 0900 UNL 15 1018.3 41 320° NW 4 300 29.29 78 57 26 0 0.00 0.00 0.0 0.79 75.9
08/07/2022 0800 UNL 15 1018.2 40 280° W 4 300 29.29 72 55 31 0 0.00 0.00 0.0 0.56 71.4
08/07/2022 0700 UNL 15 1018.1 44 70° ENE 3 200 29.29 66 54 43 0 0.00 0.00 0.0 0.31 63.1
08/07/2022 0600 UNL 15 1017.5 39 30° NNE 2 140 29.27 61 50 43 0 0.00 0.00 0.0 0.10 58.6
08/07/2022 0500 NA 15 1017.0 37 220° SW 4 NA 29.26 60 49 40 NA 0.00 0.00 0.0 0.00 0
08/07/2022 0400 NA 15 1016.4 36 140° SE 6 NA 29.24 61 49 38 NA 0.00 0.00 0.0 0.00 0
08/07/2022 0300 NA 15 1016.1 34 170° S 3 NA 29.23 62 49 35 NA 0.00 0.00 0.0 0.00 0
08/07/2022 0200 NA 15 1015.7 40 290° WNW 2 NA 29.22 69 53 34 NA 0.00 0.00 0.0 0.00 0
08/07/2022 0100 NA 15 1015.6 38 260° W 5 NA 29.22 68 52 33 NA 0.00 0.00 0.0 0.00 0
08/06/2022 2400 NA 15 1015.5 36 310° NW 6 NA 29.22 70 53 29 NA 0.00 0.00 0.0 0.00 0
08/06/2022 2300 NA 15 1015.2 34 270° W 8 NA 29.21 74 54 22 NA 0.00 0.00 0.0 0.00 0
08/06/2022 2200 NA 15 1015.1 33 230° SW 6 NA 29.20 72 53 22 NA 0.00 0.00 0.0 0.00 0
08/06/2022 2100 NA 15 1015.0 34 200° SSW 7 NA 29.20 74 54 23 NA 0.00 0.00 0.0 0.00 0
08/06/2022 2000 NA 15 1014.7 36 150° SSE 8 NA 29.19 77 56 22 NA 0.00 0.00 0.0 0.01 0
08/06/2022 1900 NA 15 1014.2 36 140° SE 4 NA 29.18 86 59 16 NA 0.00 0.00 0.0 0.13 0
08/06/2022 1800 NA 15 1014.0 32 80° E 4 NA 29.17 91 60 12 NA 0.00 0.00 0.0 0.34 0
08/06/2022 1700 NA 15 1014.2 33 80° E 5 NA 29.18 91 60 12 NA 0.00 0.00 0.0 0.59 0
08/06/2022 1600 NA 15 1014.5 33 20° NNE 4 NA 29.19 91 60 12 NA 0.00 0.00 0.0 0.82 0
08/06/2022 1500 UNL 15 1015.1 34 360° N 6 1300 29.20 90 60 13 0 0.00 0.00 0.0 1.02 80.8
08/06/2022 1400 UNL 15 1015.6 35 250° WSW 5 1300 29.22 89 60 14 0 0.00 0.00 0.0 1.14 81.9
08/06/2022 1300 UNL 15 1016.1 38 340° NNW 6 1300 29.23 87 60 17 0 0.00 0.00 0.0 1.21 79.2
08/06/2022 1200 UNL 15 1016.6 38 280° W 6 1400 29.25 86 60 18 0 0.00 0.00 0.0 1.21 80.1
NA = information not available due to unmanned weather station
*= This weather occurred at observation time or during the hour
** WBGT is the Web Bulb Global Temperature Outside observed at HMS (0=unavailable)
NA = information not available due to unmanned weather station
*= This weather occurred at observation time or during the hour
** WBGT is the Web Bulb Global Temperature Outside observed at HMS (0=unavailable)